sensor_id;sensor_type;location;lat;lon;timestamp;pressure;altitude;pressure_sealevel;temperature;humidity
22025;BME280;11176;51.448;6.650;2023-07-22T00:00:53;36921.69;;;-141.29;78.54
22025;BME280;11176;51.448;6.650;2023-07-22T00:03:19;36929.66;;;-141.29;78.43
22025;BME280;11176;51.448;6.650;2023-07-22T00:05:46;36943.59;;;-141.29;78.68
22025;BME280;11176;51.448;6.650;2023-07-22T00:08:12;36935.63;;;-141.29;78.67
22025;BME280;11176;51.448;6.650;2023-07-22T00:10:42;36925.66;;;-141.29;78.18
22025;BME280;11176;51.448;6.650;2023-07-22T00:13:09;36943.59;;;-141.29;77.92
22025;BME280;11176;51.448;6.650;2023-07-22T00:15:35;36927.66;;;-141.29;77.93
22025;BME280;11176;51.448;6.650;2023-07-22T00:18:02;36923.66;;;-141.29;77.80
22025;BME280;11176;51.448;6.650;2023-07-22T00:20:29;36935.63;;;-141.29;78.35
22025;BME280;11176;51.448;6.650;2023-07-22T00:22:56;36935.63;;;-141.29;77.52
22025;BME280;11176;51.448;6.650;2023-07-22T00:25:22;36927.66;;;-141.29;77.44
22025;BME280;11176;51.448;6.650;2023-07-22T00:27:49;36959.56;;;-141.29;78.26
22025;BME280;11176;51.448;6.650;2023-07-22T00:30:15;36947.59;;;-141.29;77.99
22025;BME280;11176;51.448;6.650;2023-07-22T00:32:42;36943.59;;;-141.29;77.98
22025;BME280;11176;51.448;6.650;2023-07-22T00:35:09;36971.50;;;-141.29;78.13
22025;BME280;11176;51.448;6.650;2023-07-22T00:37:36;36949.59;;;-141.29;78.70
22025;BME280;11176;51.448;6.650;2023-07-22T00:40:03;36983.47;;;-141.29;79.00
22025;BME280;11176;51.448;6.650;2023-07-22T00:42:38;36965.53;;;-141.29;79.00
22025;BME280;11176;51.448;6.650;2023-07-22T00:45:06;36971.50;;;-141.29;79.39
22025;BME280;11176;51.448;6.650;2023-07-22T00:47:34;36987.47;;;-141.29;78.93
22025;BME280;11176;51.448;6.650;2023-07-22T00:50:03;36953.56;;;-141.29;78.77
22025;BME280;11176;51.448;6.650;2023-07-22T00:52:30;36963.53;;;-141.29;79.00
22025;BME280;11176;51.448;6.650;2023-07-22T00:54:56;36951.56;;;-141.29;78.93
22025;BME280;11176;51.448;6.650;2023-07-22T00:57:26;36969.53;;;-141.29;78.52
22025;BME280;11176;51.448;6.650;2023-07-22T00:59:54;36991.44;;;-141.29;78.50
22025;BME280;11176;51.448;6.650;2023-07-22T01:02:21;36995.44;;;-141.29;78.54
22025;BME280;11176;51.448;6.650;2023-07-22T01:04:49;36991.44;;;-141.29;78.74
22025;BME280;11176;51.448;6.650;2023-07-22T01:07:16;36979.50;;;-141.29;79.49
22025;BME280;11176;51.448;6.650;2023-07-22T01:09:43;37005.41;;;-141.29;79.73
22025;BME280;11176;51.448;6.650;2023-07-22T01:12:11;36973.50;;;-141.29;79.18
22025;BME280;11176;51.448;6.650;2023-07-22T01:14:39;36999.41;;;-141.29;79.33
22025;BME280;11176;51.448;6.650;2023-07-22T01:17:08;36971.50;;;-141.29;79.20
22025;BME280;11176;51.448;6.650;2023-07-22T01:19:36;36991.44;;;-141.29;78.58
22025;BME280;11176;51.448;6.650;2023-07-22T01:22:05;36975.50;;;-141.29;78.77
22025;BME280;11176;51.448;6.650;2023-07-22T01:24:34;36987.47;;;-141.29;79.06
22025;BME280;11176;51.448;6.650;2023-07-22T01:27:01;36963.53;;;-141.29;78.80
22025;BME280;11176;51.448;6.650;2023-07-22T01:29:29;36971.50;;;-141.29;78.38
22025;BME280;11176;51.448;6.650;2023-07-22T01:31:56;36995.44;;;-141.29;79.52
22025;BME280;11176;51.448;6.650;2023-07-22T01:34:22;37011.38;;;-141.29;79.93
22025;BME280;11176;51.448;6.650;2023-07-22T01:36:51;36999.41;;;-141.29;79.58
22025;BME280;11176;51.448;6.650;2023-07-22T01:39:17;36997.44;;;-141.29;79.25
22025;BME280;11176;51.448;6.650;2023-07-22T01:41:48;36999.41;;;-141.29;79.42
22025;BME280;11176;51.448;6.650;2023-07-22T01:44:14;36975.50;;;-141.29;79.11
22025;BME280;11176;51.448;6.650;2023-07-22T01:46:41;36983.47;;;-141.29;79.03
22025;BME280;11176;51.448;6.650;2023-07-22T01:49:11;36983.47;;;-141.29;79.01
22025;BME280;11176;51.448;6.650;2023-07-22T01:51:39;36991.44;;;-141.29;78.92
22025;BME280;11176;51.448;6.650;2023-07-22T01:54:09;36995.44;;;-141.29;79.04
22025;BME280;11176;51.448;6.650;2023-07-22T01:56:37;36975.50;;;-141.29;78.69
22025;BME280;11176;51.448;6.650;2023-07-22T01:59:03;37007.41;;;-141.29;78.79
22025;BME280;11176;51.448;6.650;2023-07-22T02:01:31;37017.38;;;-141.29;79.18
22025;BME280;11176;51.448;6.650;2023-07-22T02:03:58;36987.47;;;-141.29;79.31
22025;BME280;11176;51.448;6.650;2023-07-22T02:06:26;37035.31;;;-141.29;79.30
22025;BME280;11176;51.448;6.650;2023-07-22T02:08:54;36995.44;;;-141.29;79.08
22025;BME280;11176;51.448;6.650;2023-07-22T02:11:21;37003.41;;;-141.29;79.07
22025;BME280;11176;51.448;6.650;2023-07-22T02:13:47;37043.28;;;-141.29;79.46
22025;BME280;11176;51.448;6.650;2023-07-22T02:16:14;36991.44;;;-141.29;79.40
22025;BME280;11176;51.448;6.650;2023-07-22T02:18:40;37011.38;;;-141.29;79.70
22025;BME280;11176;51.448;6.650;2023-07-22T02:21:08;36991.44;;;-141.29;79.46
22025;BME280;11176;51.448;6.650;2023-07-22T02:23:34;36995.44;;;-141.29;79.18
22025;BME280;11176;51.448;6.650;2023-07-22T02:26:01;36999.41;;;-141.29;79.33
22025;BME280;11176;51.448;6.650;2023-07-22T02:28:28;37017.38;;;-141.29;79.61
22025;BME280;11176;51.448;6.650;2023-07-22T02:30:54;36967.53;;;-141.29;79.79
22025;BME280;11176;51.448;6.650;2023-07-22T02:33:21;36983.47;;;-141.29;79.50
22025;BME280;11176;51.448;6.650;2023-07-22T02:35:48;36979.50;;;-141.29;79.19
22025;BME280;11176;51.448;6.650;2023-07-22T02:38:15;37007.41;;;-141.29;78.85
22025;BME280;11176;51.448;6.650;2023-07-22T02:40:43;37003.41;;;-141.29;78.25
22025;BME280;11176;51.448;6.650;2023-07-22T02:43:10;36995.44;;;-141.29;78.43
22025;BME280;11176;51.448;6.650;2023-07-22T02:45:37;36979.50;;;-141.29;78.43
22025;BME280;11176;51.448;6.650;2023-07-22T02:48:04;36987.47;;;-141.29;78.32
22025;BME280;11176;51.448;6.650;2023-07-22T02:50:31;36983.47;;;-141.29;78.61
22025;BME280;11176;51.448;6.650;2023-07-22T02:52:57;36995.44;;;-141.29;78.52
22025;BME280;11176;51.448;6.650;2023-07-22T02:55:24;36999.41;;;-141.29;78.89
22025;BME280;11176;51.448;6.650;2023-07-22T02:57:50;36983.47;;;-141.29;78.67
22025;BME280;11176;51.448;6.650;2023-07-22T03:00:18;36973.50;;;-141.29;78.69
22025;BME280;11176;51.448;6.650;2023-07-22T03:02:52;36963.53;;;-141.29;78.73
22025;BME280;11176;51.448;6.650;2023-07-22T03:05:19;36979.50;;;-141.29;78.52
22025;BME280;11176;51.448;6.650;2023-07-22T03:07:47;36943.59;;;-141.29;78.17
22025;BME280;11176;51.448;6.650;2023-07-22T03:10:13;36983.47;;;-141.29;78.12
22025;BME280;11176;51.448;6.650;2023-07-22T03:12:40;36973.50;;;-141.29;78.13
22025;BME280;11176;51.448;6.650;2023-07-22T03:15:07;36949.59;;;-141.29;77.24
22025;BME280;11176;51.448;6.650;2023-07-22T03:17:35;36917.69;;;-141.29;77.25
22025;BME280;11176;51.448;6.650;2023-07-22T03:20:03;36915.69;;;-141.29;76.98
22025;BME280;11176;51.448;6.650;2023-07-22T03:22:46;36945.59;;;-141.29;77.20
22025;BME280;11176;51.448;6.650;2023-07-22T03:25:13;36907.72;;;-141.29;77.12
22025;BME280;11176;51.448;6.650;2023-07-22T03:27:40;36927.66;;;-141.29;76.97
22025;BME280;11176;51.448;6.650;2023-07-22T03:30:08;36963.53;;;-141.29;76.90
22025;BME280;11176;51.448;6.650;2023-07-22T03:32:34;36919.69;;;-141.29;76.48
22025;BME280;11176;51.448;6.650;2023-07-22T03:35:01;36931.66;;;-141.29;76.66
22025;BME280;11176;51.448;6.650;2023-07-22T03:37:28;36931.66;;;-141.29;76.60
22025;BME280;11176;51.448;6.650;2023-07-22T03:39:55;36929.66;;;-141.29;77.07
22025;BME280;11176;51.448;6.650;2023-07-22T03:42:22;36955.56;;;-141.29;77.71
22025;BME280;11176;51.448;6.650;2023-07-22T03:44:48;36945.59;;;-141.29;77.52
22025;BME280;11176;51.448;6.650;2023-07-22T03:47:14;36915.69;;;-141.29;77.49
22025;BME280;11176;51.448;6.650;2023-07-22T03:49:41;36981.47;;;-141.29;78.56
22025;BME280;11176;51.448;6.650;2023-07-22T03:52:08;36951.56;;;-141.29;78.78
22025;BME280;11176;51.448;6.650;2023-07-22T03:54:34;36967.53;;;-141.29;78.97
22025;BME280;11176;51.448;6.650;2023-07-22T03:57:01;36979.50;;;-141.29;79.59
22025;BME280;11176;51.448;6.650;2023-07-22T03:59:28;36955.56;;;-141.29;79.54
22025;BME280;11176;51.448;6.650;2023-07-22T04:01:55;36959.56;;;-141.29;79.15
22025;BME280;11176;51.448;6.650;2023-07-22T04:04:21;36943.59;;;-141.29;79.21
22025;BME280;11176;51.448;6.650;2023-07-22T04:06:48;36995.44;;;-141.29;80.19
22025;BME280;11176;51.448;6.650;2023-07-22T04:09:14;37015.38;;;-141.29;81.98
22025;BME280;11176;51.448;6.650;2023-07-22T04:11:41;36967.53;;;-141.29;81.67
22025;BME280;11176;51.448;6.650;2023-07-22T04:14:08;36993.44;;;-141.29;81.67
22025;BME280;11176;51.448;6.650;2023-07-22T04:16:34;36981.47;;;-141.29;80.73
22025;BME280;11176;51.448;6.650;2023-07-22T04:19:01;36949.59;;;-141.29;80.19
22025;BME280;11176;51.448;6.650;2023-07-22T04:21:28;36943.59;;;-141.29;80.54
22025;BME280;11176;51.448;6.650;2023-07-22T04:23:54;36987.47;;;-141.29;81.28
22025;BME280;11176;51.448;6.650;2023-07-22T04:26:21;36981.47;;;-141.29;80.94
22025;BME280;11176;51.448;6.650;2023-07-22T04:28:47;36979.50;;;-141.29;80.91
22025;BME280;11176;51.448;6.650;2023-07-22T04:31:14;36977.50;;;-141.29;81.18
22025;BME280;11176;51.448;6.650;2023-07-22T04:33:40;36987.47;;;-141.29;80.98
22025;BME280;11176;51.448;6.650;2023-07-22T04:36:08;36963.53;;;-141.29;80.41
22025;BME280;11176;51.448;6.650;2023-07-22T04:38:35;36999.41;;;-141.29;80.77
22025;BME280;11176;51.448;6.650;2023-07-22T04:41:02;36995.44;;;-141.29;80.67
22025;BME280;11176;51.448;6.650;2023-07-22T04:43:30;36967.53;;;-141.29;79.94
22025;BME280;11176;51.448;6.650;2023-07-22T04:45:56;36981.47;;;-141.29;79.57
22025;BME280;11176;51.448;6.650;2023-07-22T04:48:23;36961.53;;;-141.29;79.77
22025;BME280;11176;51.448;6.650;2023-07-22T04:50:50;36977.50;;;-141.29;79.66
22025;BME280;11176;51.448;6.650;2023-07-22T04:53:17;36999.41;;;-141.29;79.79
22025;BME280;11176;51.448;6.650;2023-07-22T04:55:44;36963.53;;;-141.29;79.73
22025;BME280;11176;51.448;6.650;2023-07-22T04:58:11;36969.53;;;-141.29;79.23
22025;BME280;11176;51.448;6.650;2023-07-22T05:00:37;36943.59;;;-141.29;79.15
22025;BME280;11176;51.448;6.650;2023-07-22T05:03:04;36943.59;;;-141.29;78.09
22025;BME280;11176;51.448;6.650;2023-07-22T05:05:32;36935.63;;;-141.29;78.01
22025;BME280;11176;51.448;6.650;2023-07-22T05:07:59;36943.59;;;-141.29;77.81
22025;BME280;11176;51.448;6.650;2023-07-22T05:10:25;36963.53;;;-141.29;77.90
22025;BME280;11176;51.448;6.650;2023-07-22T05:12:52;36935.63;;;-141.29;77.67
22025;BME280;11176;51.448;6.650;2023-07-22T05:15:18;36951.56;;;-141.29;77.82
22025;BME280;11176;51.448;6.650;2023-07-22T05:17:45;36949.59;;;-141.29;77.61
22025;BME280;11176;51.448;6.650;2023-07-22T05:20:12;36927.66;;;-141.29;77.30
22025;BME280;11176;51.448;6.650;2023-07-22T05:22:41;36903.75;;;-141.29;77.29
22025;BME280;11176;51.448;6.650;2023-07-22T05:25:09;36923.66;;;-141.29;76.68
22025;BME280;11176;51.448;6.650;2023-07-22T05:27:40;36935.63;;;-141.29;76.65
22025;BME280;11176;51.448;6.650;2023-07-22T05:30:07;36905.72;;;-141.29;76.76
22025;BME280;11176;51.448;6.650;2023-07-22T05:32:41;36891.78;;;-141.29;76.41
22025;BME280;11176;51.448;6.650;2023-07-22T05:35:08;36939.63;;;-141.29;76.69
22025;BME280;11176;51.448;6.650;2023-07-22T05:37:35;36897.75;;;-141.29;76.09
22025;BME280;11176;51.448;6.650;2023-07-22T05:40:01;36943.59;;;-141.29;76.57
22025;BME280;11176;51.448;6.650;2023-07-22T05:42:28;36881.81;;;-141.29;76.47
22025;BME280;11176;51.448;6.650;2023-07-22T05:44:57;36931.66;;;-141.29;76.08
22025;BME280;11176;51.448;6.650;2023-07-22T05:47:24;36901.75;;;-141.29;76.53
22025;BME280;11176;51.448;6.650;2023-07-22T05:49:50;36925.66;;;-141.29;76.21
22025;BME280;11176;51.448;6.650;2023-07-22T05:52:17;36929.66;;;-141.29;76.28
22025;BME280;11176;51.448;6.650;2023-07-22T05:54:43;36923.66;;;-141.29;76.19
22025;BME280;11176;51.448;6.650;2023-07-22T05:57:10;36925.66;;;-141.29;76.02
22025;BME280;11176;51.448;6.650;2023-07-22T05:59:37;36927.66;;;-141.29;76.20
22025;BME280;11176;51.448;6.650;2023-07-22T06:02:07;36939.63;;;-141.29;76.06
22025;BME280;11176;51.448;6.650;2023-07-22T06:04:34;36935.63;;;-141.29;76.15
22025;BME280;11176;51.448;6.650;2023-07-22T06:07:00;36925.66;;;-141.29;76.29
22025;BME280;11176;51.448;6.650;2023-07-22T06:09:27;36939.63;;;-141.29;76.26
22025;BME280;11176;51.448;6.650;2023-07-22T06:11:53;36935.63;;;-141.29;76.59
22025;BME280;11176;51.448;6.650;2023-07-22T06:14:20;36973.50;;;-141.29;77.02
22025;BME280;11176;51.448;6.650;2023-07-22T06:16:46;36989.44;;;-141.29;77.46
22025;BME280;11176;51.448;6.650;2023-07-22T06:19:14;36987.47;;;-141.29;76.91
22025;BME280;11176;51.448;6.650;2023-07-22T06:21:40;37011.38;;;-141.29;76.50
22025;BME280;11176;51.448;6.650;2023-07-22T06:24:08;36979.50;;;-141.29;76.13
22025;BME280;11176;51.448;6.650;2023-07-22T06:26:35;37003.41;;;-141.29;76.10
22025;BME280;11176;51.448;6.650;2023-07-22T06:29:01;37007.41;;;-141.29;76.85
22025;BME280;11176;51.448;6.650;2023-07-22T06:31:28;36993.44;;;-141.29;76.08
22025;BME280;11176;51.448;6.650;2023-07-22T06:33:57;37045.28;;;-141.29;76.12
22025;BME280;11176;51.448;6.650;2023-07-22T06:36:26;37019.34;;;-141.29;75.69
22025;BME280;11176;51.448;6.650;2023-07-22T06:38:53;37015.38;;;-141.29;75.38
22025;BME280;11176;51.448;6.650;2023-07-22T06:41:21;37025.34;;;-141.29;75.53
22025;BME280;11176;51.448;6.650;2023-07-22T06:43:49;37025.34;;;-141.29;75.53
22025;BME280;11176;51.448;6.650;2023-07-22T06:46:16;37047.25;;;-141.29;75.87
22025;BME280;11176;51.448;6.650;2023-07-22T06:48:43;37051.25;;;-141.29;74.94
22025;BME280;11176;51.448;6.650;2023-07-22T06:51:09;37047.25;;;-141.29;74.71
22025;BME280;11176;51.448;6.650;2023-07-22T06:53:36;37059.22;;;-141.29;75.28
22025;BME280;11176;51.448;6.650;2023-07-22T06:56:02;37071.19;;;-141.29;76.11
22025;BME280;11176;51.448;6.650;2023-07-22T06:58:29;37097.09;;;-141.29;74.97
22025;BME280;11176;51.448;6.650;2023-07-22T07:00:56;37085.13;;;-141.29;74.57
22025;BME280;11176;51.448;6.650;2023-07-22T07:03:23;37079.16;;;-141.29;74.38
22025;BME280;11176;51.448;6.650;2023-07-22T07:05:53;37077.16;;;-141.29;73.90
22025;BME280;11176;51.448;6.650;2023-07-22T07:08:21;37087.13;;;-141.29;73.53
22025;BME280;11176;51.448;6.650;2023-07-22T07:10:48;37071.19;;;-141.29;74.09
22025;BME280;11176;51.448;6.650;2023-07-22T07:13:14;37075.16;;;-141.29;74.00
22025;BME280;11176;51.448;6.650;2023-07-22T07:15:46;37099.09;;;-141.29;74.47
22025;BME280;11176;51.448;6.650;2023-07-22T07:18:14;37105.06;;;-141.29;73.94
22025;BME280;11176;51.448;6.650;2023-07-22T07:20:41;37123.00;;;-141.29;73.77
22025;BME280;11176;51.448;6.650;2023-07-22T07:23:07;37140.97;;;-141.29;73.59
22025;BME280;11176;51.448;6.650;2023-07-22T07:25:34;37107.06;;;-141.29;73.66
22025;BME280;11176;51.448;6.650;2023-07-22T07:28:00;37125.00;;;-141.29;73.75
22025;BME280;11176;51.448;6.650;2023-07-22T07:30:27;37127.00;;;-141.29;73.98
22025;BME280;11176;51.448;6.650;2023-07-22T07:32:53;37127.00;;;-141.29;73.40
22025;BME280;11176;51.448;6.650;2023-07-22T07:35:20;37166.88;;;-141.29;74.07
22025;BME280;11176;51.448;6.650;2023-07-22T07:37:46;37194.78;;;-141.29;74.64
22025;BME280;11176;51.448;6.650;2023-07-22T07:40:13;37206.75;;;-141.29;75.98
22025;BME280;11176;51.448;6.650;2023-07-22T07:42:40;37178.84;;;-141.29;74.77
22025;BME280;11176;51.448;6.650;2023-07-22T07:45:07;37162.88;;;-141.29;73.07
22025;BME280;11176;51.448;6.650;2023-07-22T07:47:34;37170.84;;;-141.29;71.89
22025;BME280;11176;51.448;6.650;2023-07-22T07:50:01;37150.94;;;-141.29;71.21
22025;BME280;11176;51.448;6.650;2023-07-22T07:52:29;37160.88;;;-141.29;71.29
22025;BME280;11176;51.448;6.650;2023-07-22T07:54:55;37176.84;;;-141.29;71.10
22025;BME280;11176;51.448;6.650;2023-07-22T07:57:22;37142.94;;;-141.29;70.67
22025;BME280;11176;51.448;6.650;2023-07-22T07:59:49;37170.84;;;-141.29;70.34
22025;BME280;11176;51.448;6.650;2023-07-22T08:02:15;37166.88;;;-141.29;70.26
22025;BME280;11176;51.448;6.650;2023-07-22T08:04:41;37142.94;;;-141.29;69.51
22025;BME280;11176;51.448;6.650;2023-07-22T08:07:08;37152.91;;;-141.29;68.92
22025;BME280;11176;51.448;6.650;2023-07-22T08:09:35;37142.94;;;-141.29;69.38
22025;BME280;11176;51.448;6.650;2023-07-22T08:12:02;37178.84;;;-141.29;69.28
22025;BME280;11176;51.448;6.650;2023-07-22T08:14:29;37146.94;;;-141.29;68.29
22025;BME280;11176;51.448;6.650;2023-07-22T08:16:56;37174.84;;;-141.29;68.42
22025;BME280;11176;51.448;6.650;2023-07-22T08:19:22;37154.91;;;-141.29;68.86
22025;BME280;11176;51.448;6.650;2023-07-22T08:21:49;37162.88;;;-141.29;68.01
22025;BME280;11176;51.448;6.650;2023-07-22T08:24:16;37176.84;;;-141.29;67.30
22025;BME280;11176;51.448;6.650;2023-07-22T08:26:42;37166.88;;;-141.29;67.26
22025;BME280;11176;51.448;6.650;2023-07-22T08:29:09;37174.84;;;-141.29;67.46
22025;BME280;11176;51.448;6.650;2023-07-22T08:31:35;37131.00;;;-141.29;66.26
22025;BME280;11176;51.448;6.650;2023-07-22T08:34:02;37158.91;;;-141.29;66.73
22025;BME280;11176;51.448;6.650;2023-07-22T08:36:29;37142.94;;;-141.29;65.09
22025;BME280;11176;51.448;6.650;2023-07-22T08:38:56;37158.91;;;-141.29;65.43
22025;BME280;11176;51.448;6.650;2023-07-22T08:41:22;37131.00;;;-141.29;64.80
22025;BME280;11176;51.448;6.650;2023-07-22T08:43:53;37166.88;;;-141.29;64.37
22025;BME280;11176;51.448;6.650;2023-07-22T08:46:22;37168.88;;;-141.29;63.90
22025;BME280;11176;51.448;6.650;2023-07-22T08:48:53;37148.94;;;-141.29;63.18
22025;BME280;11176;51.448;6.650;2023-07-22T08:51:21;37180.81;;;-141.29;63.18
22025;BME280;11176;51.448;6.650;2023-07-22T08:53:50;37164.88;;;-141.29;62.99
22025;BME280;11176;51.448;6.650;2023-07-22T08:56:20;37154.91;;;-141.29;62.74
22025;BME280;11176;51.448;6.650;2023-07-22T08:58:48;37204.75;;;-141.29;62.12
22025;BME280;11176;51.448;6.650;2023-07-22T09:01:15;37172.84;;;-141.29;61.82
22025;BME280;11176;51.448;6.650;2023-07-22T09:03:43;37134.97;;;-141.29;60.63
22025;BME280;11176;51.448;6.650;2023-07-22T09:06:10;37156.91;;;-141.29;60.52
22025;BME280;11176;51.448;6.650;2023-07-22T09:08:38;37152.91;;;-141.29;60.22
22025;BME280;11176;51.448;6.650;2023-07-22T09:11:05;37138.97;;;-141.29;60.25
22025;BME280;11176;51.448;6.650;2023-07-22T09:13:33;37166.88;;;-141.29;60.27
22025;BME280;11176;51.448;6.650;2023-07-22T09:16:01;37182.81;;;-141.29;60.54
22025;BME280;11176;51.448;6.650;2023-07-22T09:18:28;37182.81;;;-141.29;60.51
22025;BME280;11176;51.448;6.650;2023-07-22T09:20:55;37174.84;;;-141.29;60.18
22025;BME280;11176;51.448;6.650;2023-07-22T09:23:38;37180.81;;;-141.29;59.85
22025;BME280;11176;51.448;6.650;2023-07-22T09:26:15;37111.06;;;-141.29;58.14
22025;BME280;11176;51.448;6.650;2023-07-22T09:28:48;37119.03;;;-141.29;57.51
22025;BME280;11176;51.448;6.650;2023-07-22T09:31:16;37103.09;;;-141.29;57.05
22025;BME280;11176;51.448;6.650;2023-07-22T09:33:43;37099.09;;;-141.29;57.08
22025;BME280;11176;51.448;6.650;2023-07-22T09:36:10;37146.94;;;-141.29;57.14
22025;BME280;11176;51.448;6.650;2023-07-22T09:38:40;37113.03;;;-141.29;56.84
22025;BME280;11176;51.448;6.650;2023-07-22T09:41:06;37093.13;;;-141.29;55.54
22025;BME280;11176;51.448;6.650;2023-07-22T09:43:36;37115.03;;;-141.29;55.61
22025;BME280;11176;51.448;6.650;2023-07-22T09:46:10;37127.00;;;-141.29;56.26
22025;BME280;11176;51.448;6.650;2023-07-22T09:48:41;37158.91;;;-141.29;56.28
22025;BME280;11176;51.448;6.650;2023-07-22T09:51:15;37132.97;;;-141.29;55.92
22025;BME280;11176;51.448;6.650;2023-07-22T09:54:00;37170.84;;;-141.29;55.83
22025;BME280;11176;51.448;6.650;2023-07-22T09:56:28;37111.06;;;-141.29;54.49
22025;BME280;11176;51.448;6.650;2023-07-22T09:58:55;37154.91;;;-141.29;54.48
22025;BME280;11176;51.448;6.650;2023-07-22T10:01:24;37138.97;;;-141.29;54.14
22025;BME280;11176;51.448;6.650;2023-07-22T10:03:55;37113.03;;;-141.29;53.34
22025;BME280;11176;51.448;6.650;2023-07-22T10:06:27;37138.97;;;-141.29;53.49
22025;BME280;11176;51.448;6.650;2023-07-22T10:08:55;37115.03;;;-141.29;52.87
22025;BME280;11176;51.448;6.650;2023-07-22T10:11:24;37107.06;;;-141.29;51.54
22025;BME280;11176;51.448;6.650;2023-07-22T10:13:53;37109.06;;;-141.29;52.04
22025;BME280;11176;51.448;6.650;2023-07-22T10:16:19;37140.97;;;-141.29;52.79
22025;BME280;11176;51.448;6.650;2023-07-22T10:18:48;37083.16;;;-141.29;52.94
22025;BME280;11176;51.448;6.650;2023-07-22T10:21:15;37079.16;;;-141.29;50.96
22025;BME280;11176;51.448;6.650;2023-07-22T10:23:42;37079.16;;;-141.29;51.41
22025;BME280;11176;51.448;6.650;2023-07-22T10:26:12;37107.06;;;-141.29;50.84
22025;BME280;11176;51.448;6.650;2023-07-22T10:28:41;37065.19;;;-141.29;50.48
22025;BME280;11176;51.448;6.650;2023-07-22T10:31:08;37095.09;;;-141.29;50.74
22025;BME280;11176;51.448;6.650;2023-07-22T10:33:35;37166.88;;;-141.29;53.57
22025;BME280;11176;51.448;6.650;2023-07-22T10:36:05;37051.25;;;-141.29;48.73
22025;BME280;11176;51.448;6.650;2023-07-22T10:38:32;37047.25;;;-141.29;49.05
22025;BME280;11176;51.448;6.650;2023-07-22T10:40:59;37051.25;;;-141.29;48.88
22025;BME280;11176;51.448;6.650;2023-07-22T10:43:29;37047.25;;;-141.29;48.06
22025;BME280;11176;51.448;6.650;2023-07-22T10:46:06;37015.38;;;-141.29;46.92
22025;BME280;11176;51.448;6.650;2023-07-22T10:48:36;37035.31;;;-141.29;47.09
22025;BME280;11176;51.448;6.650;2023-07-22T10:51:12;37071.19;;;-141.29;48.73
22025;BME280;11176;51.448;6.650;2023-07-22T10:53:49;37035.31;;;-141.29;47.60
22025;BME280;11176;51.448;6.650;2023-07-22T10:56:21;37063.22;;;-141.29;48.12
22025;BME280;11176;51.448;6.650;2023-07-22T11:12:16;36947.59;;;-141.29;43.21
22025;BME280;11176;51.448;6.650;2023-07-22T11:15:01;36975.50;;;-141.29;42.34
22025;BME280;11176;51.448;6.650;2023-07-22T11:17:30;36979.50;;;-141.29;42.93
22025;BME280;11176;51.448;6.650;2023-07-22T11:19:58;36995.44;;;-141.29;43.37
22025;BME280;11176;51.448;6.650;2023-07-22T11:22:25;36967.53;;;-141.29;42.69
22025;BME280;11176;51.448;6.650;2023-07-22T11:24:55;36991.44;;;-141.29;42.69
22025;BME280;11176;51.448;6.650;2023-07-22T11:27:24;37009.38;;;-141.29;41.91
22025;BME280;11176;51.448;6.650;2023-07-22T11:29:51;36975.50;;;-141.29;40.92
22025;BME280;11176;51.448;6.650;2023-07-22T11:32:19;36983.47;;;-141.29;41.76
22025;BME280;11176;51.448;6.650;2023-07-22T11:34:51;36945.59;;;-141.29;41.32
22025;BME280;11176;51.448;6.650;2023-07-22T11:37:19;36987.47;;;-141.29;41.25
22025;BME280;11176;51.448;6.650;2023-07-22T11:39:45;36967.53;;;-141.29;39.94
22025;BME280;11176;51.448;6.650;2023-07-22T11:42:12;37007.41;;;-141.29;40.13
22025;BME280;11176;51.448;6.650;2023-07-22T11:44:39;37029.31;;;-141.29;40.05
22025;BME280;11176;51.448;6.650;2023-07-22T11:47:06;36973.50;;;-141.29;38.23
22025;BME280;11176;51.448;6.650;2023-07-22T11:49:38;36899.75;;;-141.29;36.81
22025;BME280;11176;51.448;6.650;2023-07-22T11:52:15;36883.81;;;-141.29;37.05
22025;BME280;11176;51.448;6.650;2023-07-22T11:54:45;36887.78;;;-141.29;37.11
22025;BME280;11176;51.448;6.650;2023-07-22T11:57:21;36927.66;;;-141.29;37.87
22025;BME280;11176;51.448;6.650;2023-07-22T11:59:53;36810.06;;;-141.29;35.05
22025;BME280;11176;51.448;6.650;2023-07-22T12:02:21;36720.34;;;-141.29;33.92
22025;BME280;11176;51.448;6.650;2023-07-22T12:05:02;36752.25;;;-141.29;34.52
22025;BME280;11176;51.448;6.650;2023-07-22T12:07:30;36740.28;;;-141.29;34.79
22025;BME280;11176;51.448;6.650;2023-07-22T12:09:59;36812.03;;;-141.29;35.37
22025;BME280;11176;51.448;6.650;2023-07-22T12:12:42;36756.22;;;-141.29;34.82
22025;BME280;11176;51.448;6.650;2023-07-22T12:15:12;36758.22;;;-141.29;34.94
22025;BME280;11176;51.448;6.650;2023-07-22T12:17:51;36776.16;;;-141.29;35.18
22025;BME280;11176;51.448;6.650;2023-07-22T12:20:18;36760.22;;;-141.29;35.05
22025;BME280;11176;51.448;6.650;2023-07-22T12:22:45;36776.16;;;-141.29;35.47
22025;BME280;11176;51.448;6.650;2023-07-22T12:25:11;36778.16;;;-141.29;34.76
22025;BME280;11176;51.448;6.650;2023-07-22T12:27:38;36712.38;;;-141.29;34.08
22025;BME280;11176;51.448;6.650;2023-07-22T12:30:05;36644.63;;;-141.29;33.92
22025;BME280;11176;51.448;6.650;2023-07-22T12:32:33;36640.63;;;-141.29;34.06
22025;BME280;11176;51.448;6.650;2023-07-22T12:35:00;36686.47;;;-141.29;34.23
22025;BME280;11176;51.448;6.650;2023-07-22T12:37:27;36628.66;;;-141.29;33.96
22025;BME280;11176;51.448;6.650;2023-07-22T12:39:55;36624.69;;;-141.29;33.97
22025;BME280;11176;51.448;6.650;2023-07-22T12:42:22;36616.72;;;-141.29;33.70
22025;BME280;11176;51.448;6.650;2023-07-22T12:44:49;36660.56;;;-141.29;34.34
22025;BME280;11176;51.448;6.650;2023-07-22T12:47:16;36630.66;;;-141.29;34.12
22025;BME280;11176;51.448;6.650;2023-07-22T12:49:43;36616.72;;;-141.29;33.98
22025;BME280;11176;51.448;6.650;2023-07-22T12:52:10;36604.75;;;-141.29;34.02
22025;BME280;11176;51.448;6.650;2023-07-22T12:54:37;36608.72;;;-141.29;33.81
22025;BME280;11176;51.448;6.650;2023-07-22T12:57:04;36558.91;;;-141.29;33.70